sensor_id;sensor_type;location;lat;lon;timestamp;P1;durP1;ratioP1;P2;durP2;ratioP2
55067;SDS011;40965;52.368;9.712;2022-12-20T00:01:34;12.32;;;9.07;;
55067;SDS011;40965;52.368;9.712;2022-12-20T00:04:02;15.75;;;9.70;;
55067;SDS011;40965;52.368;9.712;2022-12-20T00:06:30;13.23;;;8.82;;
55067;SDS011;40965;52.368;9.712;2022-12-20T00:09:00;17.70;;;10.95;;
55067;SDS011;40965;52.368;9.712;2022-12-20T00:11:30;15.77;;;10.27;;
55067;SDS011;40965;52.368;9.712;2022-12-20T00:13:57;16.98;;;10.38;;
55067;SDS011;40965;52.368;9.712;2022-12-20T00:16:24;16.05;;;10.05;;
55067;SDS011;40965;52.368;9.712;2022-12-20T00:18:54;18.38;;;10.68;;
55067;SDS011;40965;52.368;9.712;2022-12-20T00:21:23;15.88;;;9.80;;
55067;SDS011;40965;52.368;9.712;2022-12-20T00:23:51;19.48;;;12.10;;
55067;SDS011;40965;52.368;9.712;2022-12-20T00:26:19;20.33;;;11.70;;
55067;SDS011;40965;52.368;9.712;2022-12-20T00:28:51;24.60;;;13.23;;
55067;SDS011;40965;52.368;9.712;2022-12-20T00:31:19;19.35;;;12.00;;
55067;SDS011;40965;52.368;9.712;2022-12-20T00:33:48;16.27;;;10.55;;
55067;SDS011;40965;52.368;9.712;2022-12-20T00:36:17;19.50;;;11.98;;
55067;SDS011;40965;52.368;9.712;2022-12-20T00:38:45;19.50;;;11.93;;
55067;SDS011;40965;52.368;9.712;2022-12-20T00:41:14;15.07;;;10.38;;
55067;SDS011;40965;52.368;9.712;2022-12-20T00:43:48;17.77;;;10.75;;
55067;SDS011;40965;52.368;9.712;2022-12-20T00:46:15;22.38;;;12.40;;
55067;SDS011;40965;52.368;9.712;2022-12-20T00:48:43;18.27;;;11.38;;
55067;SDS011;40965;52.368;9.712;2022-12-20T00:51:11;20.25;;;11.85;;
55067;SDS011;40965;52.368;9.712;2022-12-20T00:53:40;18.55;;;10.50;;
55067;SDS011;40965;52.368;9.712;2022-12-20T00:56:08;18.27;;;12.25;;
55067;SDS011;40965;52.368;9.712;2022-12-20T00:58:35;18.98;;;11.23;;
55067;SDS011;40965;52.368;9.712;2022-12-20T01:01:04;15.02;;;10.90;;
55067;SDS011;40965;52.368;9.712;2022-12-20T01:03:39;16.67;;;10.23;;
55067;SDS011;40965;52.368;9.712;2022-12-20T01:06:06;15.15;;;11.30;;
55067;SDS011;40965;52.368;9.712;2022-12-20T01:08:33;22.17;;;12.20;;
55067;SDS011;40965;52.368;9.712;2022-12-20T01:11:00;17.67;;;10.88;;
55067;SDS011;40965;52.368;9.712;2022-12-20T01:13:29;17.13;;;9.68;;
55067;SDS011;40965;52.368;9.712;2022-12-20T01:16:02;24.90;;;11.63;;
55067;SDS011;40965;52.368;9.712;2022-12-20T01:18:38;18.17;;;10.50;;
55067;SDS011;40965;52.368;9.712;2022-12-20T01:21:07;15.70;;;10.70;;
55067;SDS011;40965;52.368;9.712;2022-12-20T01:23:36;24.10;;;10.95;;
55067;SDS011;40965;52.368;9.712;2022-12-20T01:26:04;16.25;;;10.10;;
55067;SDS011;40965;52.368;9.712;2022-12-20T01:28:36;16.63;;;9.32;;
55067;SDS011;40965;52.368;9.712;2022-12-20T01:31:06;17.05;;;10.07;;
55067;SDS011;40965;52.368;9.712;2022-12-20T01:33:37;18.33;;;10.38;;
55067;SDS011;40965;52.368;9.712;2022-12-20T01:36:07;14.98;;;9.68;;
55067;SDS011;40965;52.368;9.712;2022-12-20T01:38:41;17.30;;;10.00;;
55067;SDS011;40965;52.368;9.712;2022-12-20T01:41:09;15.10;;;10.68;;
55067;SDS011;40965;52.368;9.712;2022-12-20T01:43:49;14.10;;;9.88;;
55067;SDS011;40965;52.368;9.712;2022-12-20T01:50:15;15.07;;;10.10;;
55067;SDS011;40965;52.368;9.712;2022-12-20T01:52:48;16.17;;;10.27;;
55067;SDS011;40965;52.368;9.712;2022-12-20T01:55:22;19.00;;;10.48;;
55067;SDS011;40965;52.368;9.712;2022-12-20T02:00:28;15.68;;;9.77;;
55067;SDS011;40965;52.368;9.712;2022-12-20T02:02:57;14.93;;;9.77;;
55067;SDS011;40965;52.368;9.712;2022-12-20T02:05:26;15.25;;;9.75;;
55067;SDS011;40965;52.368;9.712;2022-12-20T02:07:59;14.90;;;9.10;;
55067;SDS011;40965;52.368;9.712;2022-12-20T02:10:28;14.85;;;9.38;;
55067;SDS011;40965;52.368;9.712;2022-12-20T02:13:30;16.33;;;10.35;;
55067;SDS011;40965;52.368;9.712;2022-12-20T02:16:27;14.73;;;9.20;;
55067;SDS011;40965;52.368;9.712;2022-12-20T02:22:14;13.45;;;8.60;;
55067;SDS011;40965;52.368;9.712;2022-12-20T02:24:57;15.88;;;9.75;;
55067;SDS011;40965;52.368;9.712;2022-12-20T02:27:42;13.55;;;9.73;;
55067;SDS011;40965;52.368;9.712;2022-12-20T02:30:21;10.73;;;8.38;;
55067;SDS011;40965;52.368;9.712;2022-12-20T02:32:58;15.32;;;9.27;;
55067;SDS011;40965;52.368;9.712;2022-12-20T02:35:30;15.18;;;9.13;;
55067;SDS011;40965;52.368;9.712;2022-12-20T02:38:23;14.55;;;8.63;;
55067;SDS011;40965;52.368;9.712;2022-12-20T02:41:00;12.95;;;8.75;;
55067;SDS011;40965;52.368;9.712;2022-12-20T02:43:33;14.23;;;9.45;;
55067;SDS011;40965;52.368;9.712;2022-12-20T02:46:22;13.90;;;9.60;;
55067;SDS011;40965;52.368;9.712;2022-12-20T02:48:51;11.93;;;8.35;;
55067;SDS011;40965;52.368;9.712;2022-12-20T02:51:22;13.88;;;8.90;;
55067;SDS011;40965;52.368;9.712;2022-12-20T02:53:51;15.73;;;9.43;;
55067;SDS011;40965;52.368;9.712;2022-12-20T02:56:26;12.65;;;9.00;;
55067;SDS011;40965;52.368;9.712;2022-12-20T02:59:06;13.68;;;8.68;;
55067;SDS011;40965;52.368;9.712;2022-12-20T03:01:44;14.63;;;8.63;;
55067;SDS011;40965;52.368;9.712;2022-12-20T03:04:26;13.35;;;8.18;;
55067;SDS011;40965;52.368;9.712;2022-12-20T03:07:11;8.68;;;6.45;;
55067;SDS011;40965;52.368;9.712;2022-12-20T03:09:42;12.77;;;7.78;;
55067;SDS011;40965;52.368;9.712;2022-12-20T03:12:10;11.48;;;7.53;;
55067;SDS011;40965;52.368;9.712;2022-12-20T03:14:43;13.57;;;8.52;;
55067;SDS011;40965;52.368;9.712;2022-12-20T03:17:12;11.48;;;7.97;;
55067;SDS011;40965;52.368;9.712;2022-12-20T03:19:39;12.05;;;8.15;;
55067;SDS011;40965;52.368;9.712;2022-12-20T03:25:46;13.40;;;9.15;;
55067;SDS011;40965;52.368;9.712;2022-12-20T03:29:29;12.80;;;8.02;;
55067;SDS011;40965;52.368;9.712;2022-12-20T03:31:56;15.00;;;7.63;;
55067;SDS011;40965;52.368;9.712;2022-12-20T03:34:27;12.10;;;8.60;;
55067;SDS011;40965;52.368;9.712;2022-12-20T03:36:54;11.65;;;9.05;;
55067;SDS011;40965;52.368;9.712;2022-12-20T03:39:21;13.82;;;8.77;;
55067;SDS011;40965;52.368;9.712;2022-12-20T03:41:50;15.23;;;11.10;;
55067;SDS011;40965;52.368;9.712;2022-12-20T03:44:16;14.88;;;9.68;;
55067;SDS011;40965;52.368;9.712;2022-12-20T03:46:43;11.73;;;7.97;;
55067;SDS011;40965;52.368;9.712;2022-12-20T03:49:20;12.13;;;8.45;;
55067;SDS011;40965;52.368;9.712;2022-12-20T03:51:52;14.50;;;9.07;;
55067;SDS011;40965;52.368;9.712;2022-12-20T03:54:19;12.10;;;9.48;;
55067;SDS011;40965;52.368;9.712;2022-12-20T04:02:36;13.93;;;8.98;;
55067;SDS011;40965;52.368;9.712;2022-12-20T04:05:04;11.85;;;7.97;;
55067;SDS011;40965;52.368;9.712;2022-12-20T04:07:31;14.15;;;8.93;;
55067;SDS011;40965;52.368;9.712;2022-12-20T04:09:57;12.95;;;8.35;;
55067;SDS011;40965;52.368;9.712;2022-12-20T04:12:24;14.82;;;10.18;;
55067;SDS011;40965;52.368;9.712;2022-12-20T04:17:30;13.02;;;8.43;;
55067;SDS011;40965;52.368;9.712;2022-12-20T04:20:00;11.40;;;7.63;;
55067;SDS011;40965;52.368;9.712;2022-12-20T04:22:43;16.48;;;9.10;;
55067;SDS011;40965;52.368;9.712;2022-12-20T04:25:15;12.55;;;9.23;;
55067;SDS011;40965;52.368;9.712;2022-12-20T04:27:48;12.77;;;8.10;;
55067;SDS011;40965;52.368;9.712;2022-12-20T04:30:15;13.73;;;8.52;;
55067;SDS011;40965;52.368;9.712;2022-12-20T04:32:42;12.80;;;8.43;;
55067;SDS011;40965;52.368;9.712;2022-12-20T04:35:11;14.63;;;9.25;;
55067;SDS011;40965;52.368;9.712;2022-12-20T04:37:37;15.27;;;9.05;;
55067;SDS011;40965;52.368;9.712;2022-12-20T04:40:04;16.27;;;9.88;;
55067;SDS011;40965;52.368;9.712;2022-12-20T04:42:31;11.60;;;8.32;;
55067;SDS011;40965;52.368;9.712;2022-12-20T04:44:58;14.80;;;10.43;;
55067;SDS011;40965;52.368;9.712;2022-12-20T04:47:24;12.52;;;9.55;;
55067;SDS011;40965;52.368;9.712;2022-12-20T04:57:34;16.73;;;10.75;;
55067;SDS011;40965;52.368;9.712;2022-12-20T05:00:01;14.52;;;8.50;;
55067;SDS011;40965;52.368;9.712;2022-12-20T05:02:28;14.98;;;9.65;;
55067;SDS011;40965;52.368;9.712;2022-12-20T05:04:55;12.90;;;8.82;;
55067;SDS011;40965;52.368;9.712;2022-12-20T05:07:22;17.13;;;9.73;;
55067;SDS011;40965;52.368;9.712;2022-12-20T05:09:48;16.02;;;9.60;;
55067;SDS011;40965;52.368;9.712;2022-12-20T05:12:15;14.88;;;9.00;;
55067;SDS011;40965;52.368;9.712;2022-12-20T05:14:42;11.73;;;8.73;;
55067;SDS011;40965;52.368;9.712;2022-12-20T05:17:08;13.30;;;9.52;;
55067;SDS011;40965;52.368;9.712;2022-12-20T05:19:35;13.82;;;8.93;;
55067;SDS011;40965;52.368;9.712;2022-12-20T05:25:46;17.60;;;10.88;;
55067;SDS011;40965;52.368;9.712;2022-12-20T05:28:29;12.80;;;8.98;;
55067;SDS011;40965;52.368;9.712;2022-12-20T05:30:57;14.20;;;8.80;;
55067;SDS011;40965;52.368;9.712;2022-12-20T05:33:24;18.02;;;9.80;;
55067;SDS011;40965;52.368;9.712;2022-12-20T05:35:50;14.05;;;8.82;;
55067;SDS011;40965;52.368;9.712;2022-12-20T05:38:17;10.65;;;8.85;;
55067;SDS011;40965;52.368;9.712;2022-12-20T05:40:46;16.73;;;9.88;;
55067;SDS011;40965;52.368;9.712;2022-12-20T05:43:14;20.08;;;11.15;;
55067;SDS011;40965;52.368;9.712;2022-12-20T05:45:48;12.82;;;9.23;;
55067;SDS011;40965;52.368;9.712;2022-12-20T05:48:18;11.95;;;8.85;;
55067;SDS011;40965;52.368;9.712;2022-12-20T05:50:45;12.52;;;9.00;;
55067;SDS011;40965;52.368;9.712;2022-12-20T05:53:12;13.40;;;8.90;;
55067;SDS011;40965;52.368;9.712;2022-12-20T05:55:46;13.32;;;8.77;;
55067;SDS011;40965;52.368;9.712;2022-12-20T05:58:15;14.75;;;10.25;;
55067;SDS011;40965;52.368;9.712;2022-12-20T06:00:43;14.85;;;9.15;;
55067;SDS011;40965;52.368;9.712;2022-12-20T06:03:11;10.73;;;8.90;;
55067;SDS011;40965;52.368;9.712;2022-12-20T06:05:39;13.68;;;9.45;;
55067;SDS011;40965;52.368;9.712;2022-12-20T06:08:06;16.42;;;9.27;;
55067;SDS011;40965;52.368;9.712;2022-12-20T06:10:34;16.13;;;10.68;;
55067;SDS011;40965;52.368;9.712;2022-12-20T06:13:01;13.07;;;9.27;;
55067;SDS011;40965;52.368;9.712;2022-12-20T06:15:29;13.80;;;9.75;;
55067;SDS011;40965;52.368;9.712;2022-12-20T06:17:56;17.70;;;11.38;;
55067;SDS011;40965;52.368;9.712;2022-12-20T06:20:23;16.90;;;10.00;;
55067;SDS011;40965;52.368;9.712;2022-12-20T06:22:56;14.48;;;10.10;;
55067;SDS011;40965;52.368;9.712;2022-12-20T06:26:25;13.50;;;9.82;;
55067;SDS011;40965;52.368;9.712;2022-12-20T06:29:06;15.43;;;9.13;;
55067;SDS011;40965;52.368;9.712;2022-12-20T06:34:34;13.15;;;9.80;;
55067;SDS011;40965;52.368;9.712;2022-12-20T06:37:10;16.08;;;10.63;;
55067;SDS011;40965;52.368;9.712;2022-12-20T06:40:04;14.75;;;10.10;;
55067;SDS011;40965;52.368;9.712;2022-12-20T06:43:00;15.05;;;10.98;;
55067;SDS011;40965;52.368;9.712;2022-12-20T06:45:48;21.77;;;12.27;;
55067;SDS011;40965;52.368;9.712;2022-12-20T06:48:31;14.00;;;8.70;;
55067;SDS011;40965;52.368;9.712;2022-12-20T06:51:29;14.20;;;10.00;;
55067;SDS011;40965;52.368;9.712;2022-12-20T06:54:09;12.98;;;9.15;;
55067;SDS011;40965;52.368;9.712;2022-12-20T06:56:41;13.02;;;9.43;;
55067;SDS011;40965;52.368;9.712;2022-12-20T06:59:08;13.35;;;9.55;;
55067;SDS011;40965;52.368;9.712;2022-12-20T07:01:50;12.13;;;9.25;;
55067;SDS011;40965;52.368;9.712;2022-12-20T07:04:22;12.05;;;8.63;;
55067;SDS011;40965;52.368;9.712;2022-12-20T07:06:49;13.70;;;8.23;;
55067;SDS011;40965;52.368;9.712;2022-12-20T07:09:16;12.68;;;8.55;;
55067;SDS011;40965;52.368;9.712;2022-12-20T07:11:42;12.43;;;9.05;;
55067;SDS011;40965;52.368;9.712;2022-12-20T07:14:09;16.27;;;8.65;;
55067;SDS011;40965;52.368;9.712;2022-12-20T07:16:38;13.27;;;9.52;;
55067;SDS011;40965;52.368;9.712;2022-12-20T07:19:09;13.27;;;8.80;;
55067;SDS011;40965;52.368;9.712;2022-12-20T07:21:37;15.35;;;9.65;;
55067;SDS011;40965;52.368;9.712;2022-12-20T07:24:06;13.43;;;9.38;;
55067;SDS011;40965;52.368;9.712;2022-12-20T07:26:33;9.93;;;8.82;;
55067;SDS011;40965;52.368;9.712;2022-12-20T07:29:00;12.38;;;9.27;;
55067;SDS011;40965;52.368;9.712;2022-12-20T07:31:30;14.10;;;8.85;;
55067;SDS011;40965;52.368;9.712;2022-12-20T07:33:57;16.00;;;9.55;;
55067;SDS011;40965;52.368;9.712;2022-12-20T07:36:23;17.20;;;10.13;;
55067;SDS011;40965;52.368;9.712;2022-12-20T07:38:50;13.82;;;8.70;;
55067;SDS011;40965;52.368;9.712;2022-12-20T07:41:17;13.88;;;8.82;;
55067;SDS011;40965;52.368;9.712;2022-12-20T07:43:43;14.90;;;9.43;;
55067;SDS011;40965;52.368;9.712;2022-12-20T07:46:11;14.90;;;9.50;;
55067;SDS011;40965;52.368;9.712;2022-12-20T07:48:39;12.68;;;8.60;;
55067;SDS011;40965;52.368;9.712;2022-12-20T07:51:07;15.35;;;9.77;;
55067;SDS011;40965;52.368;9.712;2022-12-20T07:53:46;13.27;;;9.13;;
55067;SDS011;40965;52.368;9.712;2022-12-20T07:56:17;11.82;;;8.18;;
55067;SDS011;40965;52.368;9.712;2022-12-20T07:58:46;19.55;;;10.02;;
55067;SDS011;40965;52.368;9.712;2022-12-20T08:01:15;13.85;;;9.30;;
55067;SDS011;40965;52.368;9.712;2022-12-20T08:03:43;14.68;;;8.95;;
55067;SDS011;40965;52.368;9.712;2022-12-20T08:06:13;14.30;;;8.98;;
55067;SDS011;40965;52.368;9.712;2022-12-20T08:08:42;13.93;;;9.10;;
55067;SDS011;40965;52.368;9.712;2022-12-20T08:11:15;14.93;;;8.40;;
55067;SDS011;40965;52.368;9.712;2022-12-20T08:13:43;11.52;;;7.85;;
55067;SDS011;40965;52.368;9.712;2022-12-20T08:16:10;13.10;;;8.45;;
55067;SDS011;40965;52.368;9.712;2022-12-20T08:18:37;11.82;;;9.40;;
55067;SDS011;40965;52.368;9.712;2022-12-20T08:21:04;13.80;;;9.02;;
55067;SDS011;40965;52.368;9.712;2022-12-20T08:23:31;11.57;;;8.40;;
55067;SDS011;40965;52.368;9.712;2022-12-20T08:26:01;10.85;;;8.02;;
55067;SDS011;40965;52.368;9.712;2022-12-20T08:28:27;11.02;;;7.53;;
55067;SDS011;40965;52.368;9.712;2022-12-20T08:30:59;14.52;;;8.85;;
55067;SDS011;40965;52.368;9.712;2022-12-20T08:33:30;9.25;;;6.50;;
55067;SDS011;40965;52.368;9.712;2022-12-20T08:35:59;10.55;;;8.05;;
55067;SDS011;40965;52.368;9.712;2022-12-20T08:38:29;14.07;;;8.30;;
55067;SDS011;40965;52.368;9.712;2022-12-20T08:41:03;13.70;;;8.30;;
55067;SDS011;40965;52.368;9.712;2022-12-20T08:43:39;11.68;;;7.80;;
55067;SDS011;40965;52.368;9.712;2022-12-20T08:46:06;9.35;;;7.50;;
55067;SDS011;40965;52.368;9.712;2022-12-20T08:48:34;12.68;;;8.10;;
55067;SDS011;40965;52.368;9.712;2022-12-20T08:51:03;13.65;;;7.88;;
55067;SDS011;40965;52.368;9.712;2022-12-20T08:53:34;12.50;;;7.43;;
55067;SDS011;40965;52.368;9.712;2022-12-20T08:56:03;12.63;;;7.22;;
55067;SDS011;40965;52.368;9.712;2022-12-20T08:59:16;11.55;;;7.38;;
55067;SDS011;40965;52.368;9.712;2022-12-20T09:01:43;13.98;;;7.03;;
55067;SDS011;40965;52.368;9.712;2022-12-20T09:04:10;11.48;;;7.28;;
55067;SDS011;40965;52.368;9.712;2022-12-20T09:06:40;12.90;;;6.53;;
55067;SDS011;40965;52.368;9.712;2022-12-20T09:09:07;13.07;;;7.40;;
55067;SDS011;40965;52.368;9.712;2022-12-20T09:11:34;9.10;;;6.82;;
55067;SDS011;40965;52.368;9.712;2022-12-20T09:14:03;9.20;;;6.90;;
55067;SDS011;40965;52.368;9.712;2022-12-20T09:16:32;11.63;;;7.68;;
55067;SDS011;40965;52.368;9.712;2022-12-20T09:19:00;10.68;;;7.28;;
55067;SDS011;40965;52.368;9.712;2022-12-20T09:21:33;17.02;;;7.47;;
55067;SDS011;40965;52.368;9.712;2022-12-20T09:24:00;9.98;;;7.70;;
55067;SDS011;40965;52.368;9.712;2022-12-20T09:26:27;11.57;;;6.18;;
55067;SDS011;40965;52.368;9.712;2022-12-20T09:28:59;8.18;;;5.82;;
55067;SDS011;40965;52.368;9.712;2022-12-20T09:31:26;11.35;;;7.30;;
55067;SDS011;40965;52.368;9.712;2022-12-20T09:33:54;10.45;;;7.80;;
55067;SDS011;40965;52.368;9.712;2022-12-20T09:36:23;10.15;;;7.60;;
55067;SDS011;40965;52.368;9.712;2022-12-20T09:38:54;10.00;;;6.50;;
55067;SDS011;40965;52.368;9.712;2022-12-20T09:41:36;9.10;;;6.50;;
55067;SDS011;40965;52.368;9.712;2022-12-20T09:47:03;9.75;;;6.68;;
55067;SDS011;40965;52.368;9.712;2022-12-20T09:49:33;8.68;;;6.75;;
55067;SDS011;40965;52.368;9.712;2022-12-20T09:52:50;8.10;;;6.82;;
55067;SDS011;40965;52.368;9.712;2022-12-20T10:01:16;10.70;;;6.78;;
55067;SDS011;40965;52.368;9.712;2022-12-20T10:04:34;7.80;;;6.40;;
55067;SDS011;40965;52.368;9.712;2022-12-20T10:07:14;11.30;;;6.18;;
55067;SDS011;40965;52.368;9.712;2022-12-20T10:15:51;10.10;;;5.70;;
55067;SDS011;40965;52.368;9.712;2022-12-20T10:18:51;7.68;;;5.40;;
55067;SDS011;40965;52.368;9.712;2022-12-20T10:21:44;10.00;;;6.47;;
55067;SDS011;40965;52.368;9.712;2022-12-20T10:24:33;8.00;;;5.90;;
55067;SDS011;40965;52.368;9.712;2022-12-20T10:27:14;6.85;;;5.40;;
55067;SDS011;40965;52.368;9.712;2022-12-20T10:29:45;7.90;;;5.97;;
55067;SDS011;40965;52.368;9.712;2022-12-20T10:32:18;8.38;;;6.13;;
55067;SDS011;40965;52.368;9.712;2022-12-20T10:34:59;6.65;;;6.00;;
55067;SDS011;40965;52.368;9.712;2022-12-20T10:37:57;5.80;;;5.15;;
55067;SDS011;40965;52.368;9.712;2022-12-20T10:40:29;6.30;;;5.03;;
55067;SDS011;40965;52.368;9.712;2022-12-20T10:43:02;7.53;;;5.28;;
55067;SDS011;40965;52.368;9.712;2022-12-20T10:48:06;6.55;;;5.70;;
55067;SDS011;40965;52.368;9.712;2022-12-20T10:56:23;9.45;;;5.25;;
55067;SDS011;40965;52.368;9.712;2022-12-20T10:59:02;7.57;;;4.85;;
55067;SDS011;40965;52.368;9.712;2022-12-20T11:01:51;6.45;;;4.63;;
55067;SDS011;40965;52.368;9.712;2022-12-20T11:07:20;7.57;;;4.35;;
55067;SDS011;40965;52.368;9.712;2022-12-20T11:09:51;7.22;;;4.75;;
55067;SDS011;40965;52.368;9.712;2022-12-20T11:15:53;7.13;;;5.40;;
55067;SDS011;40965;52.368;9.712;2022-12-20T11:18:28;16.95;;;5.70;;
55067;SDS011;40965;52.368;9.712;2022-12-20T11:30:18;8.50;;;5.50;;
55067;SDS011;40965;52.368;9.712;2022-12-20T11:42:12;6.53;;;4.35;;
55067;SDS011;40965;52.368;9.712;2022-12-20T11:53:36;13.80;;;5.15;;
55067;SDS011;40965;52.368;9.712;2022-12-20T11:56:10;11.20;;;4.70;;
55067;SDS011;40965;52.368;9.712;2022-12-20T11:58:45;5.80;;;3.75;;
55067;SDS011;40965;52.368;9.712;2022-12-20T12:01:23;4.22;;;3.70;;
55067;SDS011;40965;52.368;9.712;2022-12-20T12:04:06;7.13;;;3.92;;
55067;SDS011;40965;52.368;9.712;2022-12-20T12:06:41;20.50;;;5.72;;
55067;SDS011;40965;52.368;9.712;2022-12-20T12:12:03;5.75;;;3.38;;
55067;SDS011;40965;52.368;9.712;2022-12-20T12:14:43;4.60;;;3.28;;
55067;SDS011;40965;52.368;9.712;2022-12-20T12:17:27;5.75;;;4.13;;
55067;SDS011;40965;52.368;9.712;2022-12-20T12:20:47;4.75;;;3.60;;
55067;SDS011;40965;52.368;9.712;2022-12-20T12:23:16;6.95;;;3.15;;
55067;SDS011;40965;52.368;9.712;2022-12-20T12:26:01;6.85;;;4.00;;
55067;SDS011;40965;52.368;9.712;2022-12-20T12:28:35;9.25;;;4.07;;
55067;SDS011;40965;52.368;9.712;2022-12-20T12:31:03;13.70;;;4.18;;
55067;SDS011;40965;52.368;9.712;2022-12-20T12:36:22;6.63;;;3.58;;
55067;SDS011;40965;52.368;9.712;2022-12-20T12:39:11;4.35;;;2.90;;
55067;SDS011;40965;52.368;9.712;2022-12-20T12:48:17;4.10;;;3.75;;
55067;SDS011;40965;52.368;9.712;2022-12-20T12:50:49;6.43;;;4.20;;
55067;SDS011;40965;52.368;9.712;2022-12-20T12:53:35;8.07;;;3.60;;
55067;SDS011;40965;52.368;9.712;2022-12-20T13:04:27;8.00;;;3.13;;
55067;SDS011;40965;52.368;9.712;2022-12-20T13:09:59;5.80;;;3.60;;
55067;SDS011;40965;52.368;9.712;2022-12-20T13:20:34;4.35;;;3.70;;
55067;SDS011;40965;52.368;9.712;2022-12-20T13:23:04;17.25;;;4.97;;
55067;SDS011;40965;52.368;9.712;2022-12-20T13:25:45;9.85;;;4.78;;
55067;SDS011;40965;52.368;9.712;2022-12-20T13:30:46;4.45;;;3.63;;
55067;SDS011;40965;52.368;9.712;2022-12-20T13:33:38;4.65;;;3.42;;
55067;SDS011;40965;52.368;9.712;2022-12-20T13:44:00;4.80;;;3.63;;
55067;SDS011;40965;52.368;9.712;2022-12-20T13:49:11;4.10;;;3.53;;
55067;SDS011;40965;52.368;9.712;2022-12-20T13:51:47;4.50;;;3.20;;
55067;SDS011;40965;52.368;9.712;2022-12-20T13:54:15;6.47;;;3.22;;
55067;SDS011;40965;52.368;9.712;2022-12-20T13:56:45;4.60;;;3.85;;
55067;SDS011;40965;52.368;9.712;2022-12-20T13:59:24;3.40;;;3.10;;
55067;SDS011;40965;52.368;9.712;2022-12-20T14:01:57;5.15;;;3.38;;
55067;SDS011;40965;52.368;9.712;2022-12-20T14:04:27;4.40;;;3.80;;
55067;SDS011;40965;52.368;9.712;2022-12-20T14:07:07;4.63;;;4.22;;
55067;SDS011;40965;52.368;9.712;2022-12-20T14:09:38;4.15;;;3.58;;
55067;SDS011;40965;52.368;9.712;2022-12-20T14:12:05;3.08;;;2.70;;
55067;SDS011;40965;52.368;9.712;2022-12-20T14:14:43;4.32;;;3.15;;
55067;SDS011;40965;52.368;9.712;2022-12-20T14:17:30;3.50;;;3.17;;
55067;SDS011;40965;52.368;9.712;2022-12-20T14:22:37;4.07;;;3.58;;
55067;SDS011;40965;52.368;9.712;2022-12-20T14:25:36;7.85;;;3.90;;
55067;SDS011;40965;52.368;9.712;2022-12-20T14:31:04;5.38;;;4.00;;
55067;SDS011;40965;52.368;9.712;2022-12-20T14:33:46;4.75;;;3.10;;
55067;SDS011;40965;52.368;9.712;2022-12-20T14:38:42;2.95;;;2.50;;
55067;SDS011;40965;52.368;9.712;2022-12-20T14:41:28;2.65;;;2.38;;
55067;SDS011;40965;52.368;9.712;2022-12-20T14:44:17;3.78;;;2.65;;
55067;SDS011;40965;52.368;9.712;2022-12-20T14:46:48;2.33;;;2.10;;
55067;SDS011;40965;52.368;9.712;2022-12-20T14:49:17;3.30;;;2.45;;
55067;SDS011;40965;52.368;9.712;2022-12-20T14:51:49;4.65;;;3.65;;
55067;SDS011;40965;52.368;9.712;2022-12-20T14:54:21;4.95;;;2.90;;
55067;SDS011;40965;52.368;9.712;2022-12-20T14:56:52;3.85;;;3.35;;
55067;SDS011;40965;52.368;9.712;2022-12-20T14:59:26;4.75;;;3.05;;
55067;SDS011;40965;52.368;9.712;2022-12-20T15:01:55;2.50;;;2.30;;
55067;SDS011;40965;52.368;9.712;2022-12-20T15:04:24;3.45;;;2.88;;
55067;SDS011;40965;52.368;9.712;2022-12-20T15:06:58;7.22;;;3.00;;
55067;SDS011;40965;52.368;9.712;2022-12-20T15:09:26;3.53;;;3.13;;
55067;SDS011;40965;52.368;9.712;2022-12-20T15:11:53;3.75;;;2.78;;
55067;SDS011;40965;52.368;9.712;2022-12-20T15:14:27;2.97;;;2.55;;
55067;SDS011;40965;52.368;9.712;2022-12-20T15:17:01;3.80;;;3.05;;
55067;SDS011;40965;52.368;9.712;2022-12-20T15:19:34;6.63;;;3.50;;
55067;SDS011;40965;52.368;9.712;2022-12-20T15:22:01;4.20;;;3.08;;
55067;SDS011;40965;52.368;9.712;2022-12-20T15:24:28;6.03;;;3.45;;
55067;SDS011;40965;52.368;9.712;2022-12-20T15:26:55;4.75;;;3.90;;
55067;SDS011;40965;52.368;9.712;2022-12-20T15:29:23;3.17;;;2.75;;
55067;SDS011;40965;52.368;9.712;2022-12-20T15:31:57;3.78;;;3.15;;
55067;SDS011;40965;52.368;9.712;2022-12-20T15:34:52;3.00;;;2.60;;
55067;SDS011;40965;52.368;9.712;2022-12-20T15:37:19;4.18;;;3.17;;
55067;SDS011;40965;52.368;9.712;2022-12-20T15:39:46;7.25;;;2.90;;
55067;SDS011;40965;52.368;9.712;2022-12-20T15:42:14;3.42;;;3.15;;
55067;SDS011;40965;52.368;9.712;2022-12-20T15:44:43;4.18;;;3.30;;
55067;SDS011;40965;52.368;9.712;2022-12-20T15:47:13;6.80;;;2.95;;
55067;SDS011;40965;52.368;9.712;2022-12-20T15:49:42;4.32;;;3.42;;
55067;SDS011;40965;52.368;9.712;2022-12-20T15:52:15;7.18;;;3.75;;
55067;SDS011;40965;52.368;9.712;2022-12-20T15:54:45;3.40;;;3.10;;
55067;SDS011;40965;52.368;9.712;2022-12-20T15:57:12;5.10;;;3.00;;
55067;SDS011;40965;52.368;9.712;2022-12-20T15:59:42;7.28;;;3.70;;
55067;SDS011;40965;52.368;9.712;2022-12-20T16:02:20;4.72;;;3.10;;
55067;SDS011;40965;52.368;9.712;2022-12-20T16:04:52;5.05;;;3.80;;
55067;SDS011;40965;52.368;9.712;2022-12-20T16:07:19;5.80;;;3.25;;
55067;SDS011;40965;52.368;9.712;2022-12-20T16:09:46;7.30;;;4.05;;
55067;SDS011;40965;52.368;9.712;2022-12-20T16:12:34;3.92;;;3.20;;
55067;SDS011;40965;52.368;9.712;2022-12-20T16:15:00;3.67;;;3.38;;
55067;SDS011;40965;52.368;9.712;2022-12-20T16:17:27;5.00;;;4.18;;
55067;SDS011;40965;52.368;9.712;2022-12-20T16:19:54;3.58;;;3.28;;
55067;SDS011;40965;52.368;9.712;2022-12-20T16:22:21;3.67;;;2.80;;
55067;SDS011;40965;52.368;9.712;2022-12-20T16:24:50;3.78;;;3.30;;
55067;SDS011;40965;52.368;9.712;2022-12-20T16:27:16;7.70;;;4.40;;
55067;SDS011;40965;52.368;9.712;2022-12-20T16:29:45;3.25;;;2.67;;
55067;SDS011;40965;52.368;9.712;2022-12-20T16:32:15;4.20;;;3.80;;
55067;SDS011;40965;52.368;9.712;2022-12-20T16:34:44;4.80;;;3.25;;
55067;SDS011;40965;52.368;9.712;2022-12-20T16:37:10;5.28;;;3.80;;
55067;SDS011;40965;52.368;9.712;2022-12-20T16:39:37;6.45;;;3.42;;
55067;SDS011;40965;52.368;9.712;2022-12-20T16:42:10;4.40;;;3.50;;
55067;SDS011;40965;52.368;9.712;2022-12-20T16:44:39;5.35;;;4.85;;
55067;SDS011;40965;52.368;9.712;2022-12-20T16:47:08;5.25;;;3.88;;
55067;SDS011;40965;52.368;9.712;2022-12-20T16:49:35;5.38;;;4.43;;
55067;SDS011;40965;52.368;9.712;2022-12-20T16:52:04;5.28;;;3.97;;
55067;SDS011;40965;52.368;9.712;2022-12-20T16:54:31;5.50;;;3.92;;
55067;SDS011;40965;52.368;9.712;2022-12-20T16:56:58;5.15;;;3.88;;
55067;SDS011;40965;52.368;9.712;2022-12-20T16:59:26;6.40;;;3.90;;
55067;SDS011;40965;52.368;9.712;2022-12-20T17:01:53;5.10;;;4.10;;
55067;SDS011;40965;52.368;9.712;2022-12-20T17:04:21;6.78;;;4.55;;
55067;SDS011;40965;52.368;9.712;2022-12-20T17:06:51;4.43;;;4.03;;
55067;SDS011;40965;52.368;9.712;2022-12-20T17:09:18;5.15;;;4.13;;
55067;SDS011;40965;52.368;9.712;2022-12-20T17:11:47;4.72;;;4.13;;
55067;SDS011;40965;52.368;9.712;2022-12-20T17:14:16;4.97;;;4.45;;
55067;SDS011;40965;52.368;9.712;2022-12-20T17:16:43;8.60;;;5.25;;
55067;SDS011;40965;52.368;9.712;2022-12-20T17:19:10;10.93;;;5.38;;
55067;SDS011;40965;52.368;9.712;2022-12-20T17:21:40;4.28;;;3.90;;
55067;SDS011;40965;52.368;9.712;2022-12-20T17:24:28;7.43;;;4.60;;
55067;SDS011;40965;52.368;9.712;2022-12-20T17:26:54;7.18;;;5.35;;
55067;SDS011;40965;52.368;9.712;2022-12-20T17:29:21;9.80;;;4.32;;
55067;SDS011;40965;52.368;9.712;2022-12-20T17:31:47;5.70;;;4.30;;
55067;SDS011;40965;52.368;9.712;2022-12-20T17:34:16;7.25;;;4.43;;
55067;SDS011;40965;52.368;9.712;2022-12-20T17:36:44;7.25;;;4.80;;